sensor_id;sensor_type;location;lat;lon;timestamp;P1;durP1;ratioP1;P2;durP2;ratioP2
32639;SDS011;19049;52.524;11.468;2023-03-01T00:01:23;2.53;;;1.67;;
32639;SDS011;19049;52.524;11.468;2023-03-01T00:03:51;1.83;;;1.08;;
32639;SDS011;19049;52.524;11.468;2023-03-01T00:06:18;2.60;;;1.35;;
32639;SDS011;19049;52.524;11.468;2023-03-01T00:08:44;2.58;;;1.25;;
32639;SDS011;19049;52.524;11.468;2023-03-01T00:13:41;3.25;;;1.20;;
32639;SDS011;19049;52.524;11.468;2023-03-01T00:16:14;3.50;;;1.35;;
32639;SDS011;19049;52.524;11.468;2023-03-01T00:18:41;3.60;;;1.63;;
32639;SDS011;19049;52.524;11.468;2023-03-01T00:21:08;2.80;;;1.23;;
32639;SDS011;19049;52.524;11.468;2023-03-01T00:23:33;2.73;;;1.30;;
32639;SDS011;19049;52.524;11.468;2023-03-01T00:26:00;2.28;;;1.60;;
32639;SDS011;19049;52.524;11.468;2023-03-01T00:28:25;3.23;;;1.57;;
32639;SDS011;19049;52.524;11.468;2023-03-01T00:30:51;3.17;;;1.57;;
32639;SDS011;19049;52.524;11.468;2023-03-01T00:33:17;2.77;;;1.57;;
32639;SDS011;19049;52.524;11.468;2023-03-01T00:35:43;2.03;;;1.20;;
32639;SDS011;19049;52.524;11.468;2023-03-01T00:38:09;2.70;;;1.35;;
32639;SDS011;19049;52.524;11.468;2023-03-01T00:40:35;1.92;;;1.17;;
32639;SDS011;19049;52.524;11.468;2023-03-01T00:43:02;2.53;;;1.50;;
32639;SDS011;19049;52.524;11.468;2023-03-01T00:45:28;2.78;;;1.23;;
32639;SDS011;19049;52.524;11.468;2023-03-01T00:47:56;1.90;;;1.10;;
32639;SDS011;19049;52.524;11.468;2023-03-01T00:50:24;1.98;;;1.02;;
32639;SDS011;19049;52.524;11.468;2023-03-01T00:52:54;3.40;;;1.40;;
32639;SDS011;19049;52.524;11.468;2023-03-01T00:55:20;2.88;;;1.20;;
32639;SDS011;19049;52.524;11.468;2023-03-01T00:57:45;2.23;;;1.17;;
32639;SDS011;19049;52.524;11.468;2023-03-01T01:00:11;2.33;;;1.50;;
32639;SDS011;19049;52.524;11.468;2023-03-01T01:02:37;2.73;;;1.23;;
32639;SDS011;19049;52.524;11.468;2023-03-01T01:05:03;2.63;;;1.50;;
32639;SDS011;19049;52.524;11.468;2023-03-01T01:07:29;1.38;;;1.00;;
32639;SDS011;19049;52.524;11.468;2023-03-01T01:09:55;2.33;;;1.60;;
32639;SDS011;19049;52.524;11.468;2023-03-01T01:12:21;1.73;;;0.90;;
32639;SDS011;19049;52.524;11.468;2023-03-01T01:14:47;5.40;;;1.70;;
32639;SDS011;19049;52.524;11.468;2023-03-01T01:17:13;2.63;;;1.43;;
32639;SDS011;19049;52.524;11.468;2023-03-01T01:19:39;1.70;;;1.03;;
32639;SDS011;19049;52.524;11.468;2023-03-01T01:22:04;1.37;;;1.00;;
32639;SDS011;19049;52.524;11.468;2023-03-01T01:24:30;1.53;;;0.80;;
32639;SDS011;19049;52.524;11.468;2023-03-01T01:26:56;1.97;;;1.10;;
32639;SDS011;19049;52.524;11.468;2023-03-01T01:29:22;1.93;;;1.00;;
32639;SDS011;19049;52.524;11.468;2023-03-01T01:31:48;1.33;;;0.87;;
32639;SDS011;19049;52.524;11.468;2023-03-01T01:34:14;3.20;;;1.30;;
32639;SDS011;19049;52.524;11.468;2023-03-01T01:36:42;2.00;;;1.35;;
32639;SDS011;19049;52.524;11.468;2023-03-01T01:39:08;1.65;;;1.05;;
32639;SDS011;19049;52.524;11.468;2023-03-01T01:41:38;2.53;;;1.23;;
32639;SDS011;19049;52.524;11.468;2023-03-01T01:44:13;2.05;;;1.30;;
32639;SDS011;19049;52.524;11.468;2023-03-01T01:47:04;1.58;;;0.90;;
32639;SDS011;19049;52.524;11.468;2023-03-01T01:49:35;1.58;;;1.05;;
32639;SDS011;19049;52.524;11.468;2023-03-01T01:52:10;4.00;;;1.20;;
32639;SDS011;19049;52.524;11.468;2023-03-01T01:55:11;1.67;;;1.10;;
32639;SDS011;19049;52.524;11.468;2023-03-01T01:57:48;2.28;;;1.10;;
32639;SDS011;19049;52.524;11.468;2023-03-01T02:00:23;1.85;;;1.00;;
32639;SDS011;19049;52.524;11.468;2023-03-01T02:02:51;2.53;;;1.10;;
32639;SDS011;19049;52.524;11.468;2023-03-01T02:06:07;2.13;;;1.10;;
32639;SDS011;19049;52.524;11.468;2023-03-01T02:08:08;2.72;;;0.90;;
32639;SDS011;19049;52.524;11.468;2023-03-01T02:10:37;1.45;;;0.95;;
32639;SDS011;19049;52.524;11.468;2023-03-01T02:13:04;3.08;;;1.20;;
32639;SDS011;19049;52.524;11.468;2023-03-01T02:15:33;1.48;;;1.08;;
32639;SDS011;19049;52.524;11.468;2023-03-01T02:18:01;1.55;;;1.05;;
32639;SDS011;19049;52.524;11.468;2023-03-01T02:20:33;2.17;;;1.10;;
32639;SDS011;19049;52.524;11.468;2023-03-01T02:23:05;1.45;;;1.08;;
32639;SDS011;19049;52.524;11.468;2023-03-01T02:25:50;1.13;;;0.93;;
32639;SDS011;19049;52.524;11.468;2023-03-01T02:30:52;1.70;;;0.90;;
32639;SDS011;19049;52.524;11.468;2023-03-01T02:33:38;2.35;;;1.05;;
32639;SDS011;19049;52.524;11.468;2023-03-01T02:36:08;1.73;;;0.82;;
32639;SDS011;19049;52.524;11.468;2023-03-01T02:38:38;1.92;;;1.20;;
32639;SDS011;19049;52.524;11.468;2023-03-01T02:41:05;2.03;;;1.15;;
32639;SDS011;19049;52.524;11.468;2023-03-01T02:43:33;1.70;;;1.10;;
32639;SDS011;19049;52.524;11.468;2023-03-01T02:46:03;2.17;;;1.13;;
32639;SDS011;19049;52.524;11.468;2023-03-01T02:48:41;1.77;;;1.00;;
32639;SDS011;19049;52.524;11.468;2023-03-01T02:51:34;2.00;;;0.98;;
32639;SDS011;19049;52.524;11.468;2023-03-01T02:54:28;1.80;;;1.10;;
32639;SDS011;19049;52.524;11.468;2023-03-01T02:57:01;2.50;;;1.15;;
32639;SDS011;19049;52.524;11.468;2023-03-01T02:59:29;2.67;;;1.10;;
32639;SDS011;19049;52.524;11.468;2023-03-01T03:01:59;2.60;;;1.17;;
32639;SDS011;19049;52.524;11.468;2023-03-01T03:04:26;3.65;;;1.80;;
32639;SDS011;19049;52.524;11.468;2023-03-01T03:06:52;3.10;;;1.27;;
32639;SDS011;19049;52.524;11.468;2023-03-01T03:09:18;3.30;;;1.50;;
32639;SDS011;19049;52.524;11.468;2023-03-01T03:11:44;2.22;;;1.23;;
32639;SDS011;19049;52.524;11.468;2023-03-01T03:14:13;2.33;;;1.10;;
32639;SDS011;19049;52.524;11.468;2023-03-01T03:16:41;1.98;;;1.20;;
32639;SDS011;19049;52.524;11.468;2023-03-01T03:19:08;1.83;;;1.20;;
32639;SDS011;19049;52.524;11.468;2023-03-01T03:21:34;3.63;;;1.20;;
32639;SDS011;19049;52.524;11.468;2023-03-01T03:24:00;2.00;;;1.20;;
32639;SDS011;19049;52.524;11.468;2023-03-01T03:26:26;1.02;;;0.85;;
32639;SDS011;19049;52.524;11.468;2023-03-01T03:28:52;2.05;;;1.00;;
32639;SDS011;19049;52.524;11.468;2023-03-01T03:31:18;2.63;;;1.30;;
32639;SDS011;19049;52.524;11.468;2023-03-01T03:33:44;2.00;;;1.13;;
32639;SDS011;19049;52.524;11.468;2023-03-01T03:36:14;2.97;;;1.00;;
32639;SDS011;19049;52.524;11.468;2023-03-01T03:38:44;2.03;;;1.05;;
32639;SDS011;19049;52.524;11.468;2023-03-01T03:41:10;1.63;;;0.75;;
32639;SDS011;19049;52.524;11.468;2023-03-01T03:43:37;1.83;;;1.20;;
32639;SDS011;19049;52.524;11.468;2023-03-01T03:46:05;4.20;;;1.33;;
32639;SDS011;19049;52.524;11.468;2023-03-01T03:48:35;2.20;;;1.23;;
32639;SDS011;19049;52.524;11.468;2023-03-01T03:51:03;1.42;;;0.85;;
32639;SDS011;19049;52.524;11.468;2023-03-01T03:53:31;1.95;;;1.10;;
32639;SDS011;19049;52.524;11.468;2023-03-01T03:55:57;4.85;;;1.17;;
32639;SDS011;19049;52.524;11.468;2023-03-01T03:58:23;3.35;;;1.25;;
32639;SDS011;19049;52.524;11.468;2023-03-01T04:00:54;1.55;;;0.95;;
32639;SDS011;19049;52.524;11.468;2023-03-01T04:03:21;2.17;;;1.10;;
32639;SDS011;19049;52.524;11.468;2023-03-01T04:05:49;1.88;;;0.98;;
32639;SDS011;19049;52.524;11.468;2023-03-01T04:08:18;0.80;;;0.63;;
32639;SDS011;19049;52.524;11.468;2023-03-01T04:10:46;1.25;;;0.80;;
32639;SDS011;19049;52.524;11.468;2023-03-01T04:13:15;1.00;;;0.70;;
32639;SDS011;19049;52.524;11.468;2023-03-01T04:15:42;5.45;;;1.20;;
32639;SDS011;19049;52.524;11.468;2023-03-01T04:18:09;1.42;;;0.80;;
32639;SDS011;19049;52.524;11.468;2023-03-01T04:20:39;1.67;;;1.20;;
32639;SDS011;19049;52.524;11.468;2023-03-01T04:23:06;1.75;;;1.00;;
32639;SDS011;19049;52.524;11.468;2023-03-01T04:25:54;2.00;;;1.30;;
32639;SDS011;19049;52.524;11.468;2023-03-01T04:28:22;1.33;;;0.98;;
32639;SDS011;19049;52.524;11.468;2023-03-01T04:30:50;2.47;;;1.00;;
32639;SDS011;19049;52.524;11.468;2023-03-01T04:33:17;2.30;;;1.20;;
32639;SDS011;19049;52.524;11.468;2023-03-01T04:35:43;2.30;;;1.23;;
32639;SDS011;19049;52.524;11.468;2023-03-01T04:38:09;1.60;;;0.77;;
32639;SDS011;19049;52.524;11.468;2023-03-01T04:40:35;1.75;;;1.10;;
32639;SDS011;19049;52.524;11.468;2023-03-01T04:43:01;2.35;;;1.00;;
32639;SDS011;19049;52.524;11.468;2023-03-01T04:45:28;2.60;;;1.38;;
32639;SDS011;19049;52.524;11.468;2023-03-01T04:47:54;2.20;;;1.37;;
32639;SDS011;19049;52.524;11.468;2023-03-01T04:50:23;1.38;;;0.82;;
32639;SDS011;19049;52.524;11.468;2023-03-01T04:52:50;1.25;;;0.95;;
32639;SDS011;19049;52.524;11.468;2023-03-01T04:55:16;2.42;;;0.88;;
32639;SDS011;19049;52.524;11.468;2023-03-01T04:57:42;1.23;;;0.80;;
32639;SDS011;19049;52.524;11.468;2023-03-01T05:00:10;1.52;;;0.82;;
32639;SDS011;19049;52.524;11.468;2023-03-01T05:02:53;1.05;;;0.77;;
32639;SDS011;19049;52.524;11.468;2023-03-01T05:05:25;1.60;;;0.95;;
32639;SDS011;19049;52.524;11.468;2023-03-01T05:08:04;1.95;;;0.85;;
32639;SDS011;19049;52.524;11.468;2023-03-01T05:10:33;1.98;;;0.95;;
32639;SDS011;19049;52.524;11.468;2023-03-01T05:13:02;1.50;;;1.00;;
32639;SDS011;19049;52.524;11.468;2023-03-01T05:15:29;2.53;;;1.13;;
32639;SDS011;19049;52.524;11.468;2023-03-01T05:17:56;1.92;;;1.00;;
32639;SDS011;19049;52.524;11.468;2023-03-01T05:20:24;2.80;;;0.98;;
32639;SDS011;19049;52.524;11.468;2023-03-01T05:22:50;2.28;;;0.95;;
32639;SDS011;19049;52.524;11.468;2023-03-01T05:25:17;2.85;;;1.00;;
32639;SDS011;19049;52.524;11.468;2023-03-01T05:27:43;2.88;;;1.00;;
32639;SDS011;19049;52.524;11.468;2023-03-01T05:30:12;3.17;;;1.20;;
32639;SDS011;19049;52.524;11.468;2023-03-01T05:32:45;1.95;;;0.98;;
32639;SDS011;19049;52.524;11.468;2023-03-01T05:35:13;2.08;;;0.65;;
32639;SDS011;19049;52.524;11.468;2023-03-01T05:37:40;2.00;;;0.77;;
32639;SDS011;19049;52.524;11.468;2023-03-01T05:40:11;1.92;;;0.98;;
32639;SDS011;19049;52.524;11.468;2023-03-01T05:42:44;3.45;;;0.75;;
32639;SDS011;19049;52.524;11.468;2023-03-01T05:45:11;2.13;;;1.10;;
32639;SDS011;19049;52.524;11.468;2023-03-01T05:47:37;1.77;;;1.00;;
32639;SDS011;19049;52.524;11.468;2023-03-01T05:50:11;1.27;;;0.75;;
32639;SDS011;19049;52.524;11.468;2023-03-01T05:52:50;1.88;;;1.25;;
32639;SDS011;19049;52.524;11.468;2023-03-01T05:55:18;3.50;;;1.27;;
32639;SDS011;19049;52.524;11.468;2023-03-01T05:57:45;3.40;;;1.30;;
32639;SDS011;19049;52.524;11.468;2023-03-01T06:00:11;1.58;;;1.00;;
32639;SDS011;19049;52.524;11.468;2023-03-01T06:02:38;2.35;;;0.73;;
32639;SDS011;19049;52.524;11.468;2023-03-01T06:05:05;2.47;;;1.00;;
32639;SDS011;19049;52.524;11.468;2023-03-01T06:07:32;2.30;;;1.25;;
32639;SDS011;19049;52.524;11.468;2023-03-01T06:10:00;2.40;;;1.30;;
32639;SDS011;19049;52.524;11.468;2023-03-01T06:12:29;2.15;;;1.05;;
32639;SDS011;19049;52.524;11.468;2023-03-01T06:14:56;1.40;;;0.88;;
32639;SDS011;19049;52.524;11.468;2023-03-01T06:17:22;1.50;;;1.00;;
32639;SDS011;19049;52.524;11.468;2023-03-01T06:19:48;1.97;;;1.23;;
32639;SDS011;19049;52.524;11.468;2023-03-01T06:22:14;1.77;;;1.00;;
32639;SDS011;19049;52.524;11.468;2023-03-01T06:24:40;1.33;;;0.95;;
32639;SDS011;19049;52.524;11.468;2023-03-01T06:27:06;2.90;;;1.08;;
32639;SDS011;19049;52.524;11.468;2023-03-01T06:29:32;1.70;;;1.08;;
32639;SDS011;19049;52.524;11.468;2023-03-01T06:31:58;1.83;;;0.73;;
32639;SDS011;19049;52.524;11.468;2023-03-01T06:34:24;2.20;;;1.30;;
32639;SDS011;19049;52.524;11.468;2023-03-01T06:36:49;1.87;;;1.30;;
32639;SDS011;19049;52.524;11.468;2023-03-01T06:39:15;2.63;;;1.10;;
32639;SDS011;19049;52.524;11.468;2023-03-01T06:41:44;1.63;;;1.00;;
32639;SDS011;19049;52.524;11.468;2023-03-01T06:44:10;2.60;;;1.20;;
32639;SDS011;19049;52.524;11.468;2023-03-01T06:46:35;1.53;;;0.90;;
32639;SDS011;19049;52.524;11.468;2023-03-01T06:49:01;2.07;;;1.10;;
32639;SDS011;19049;52.524;11.468;2023-03-01T06:51:32;2.05;;;0.98;;
32639;SDS011;19049;52.524;11.468;2023-03-01T06:53:58;2.47;;;1.20;;
32639;SDS011;19049;52.524;11.468;2023-03-01T06:56:24;2.65;;;1.17;;
32639;SDS011;19049;52.524;11.468;2023-03-01T06:58:50;2.20;;;1.20;;
32639;SDS011;19049;52.524;11.468;2023-03-01T07:01:16;2.77;;;1.37;;
32639;SDS011;19049;52.524;11.468;2023-03-01T07:03:41;2.00;;;1.03;;
32639;SDS011;19049;52.524;11.468;2023-03-01T07:06:09;1.50;;;0.90;;
32639;SDS011;19049;52.524;11.468;2023-03-01T07:08:35;1.70;;;1.10;;
32639;SDS011;19049;52.524;11.468;2023-03-01T07:11:01;1.97;;;1.40;;
32639;SDS011;19049;52.524;11.468;2023-03-01T07:13:28;1.97;;;1.20;;
32639;SDS011;19049;52.524;11.468;2023-03-01T07:15:54;2.20;;;1.47;;
32639;SDS011;19049;52.524;11.468;2023-03-01T07:18:20;1.60;;;1.30;;
32639;SDS011;19049;52.524;11.468;2023-03-01T07:20:45;2.47;;;1.33;;
32639;SDS011;19049;52.524;11.468;2023-03-01T07:23:11;5.80;;;1.70;;
32639;SDS011;19049;52.524;11.468;2023-03-01T07:25:37;2.20;;;1.70;;
32639;SDS011;19049;52.524;11.468;2023-03-01T07:28:03;2.10;;;1.77;;
32639;SDS011;19049;52.524;11.468;2023-03-01T07:30:29;2.57;;;1.80;;
32639;SDS011;19049;52.524;11.468;2023-03-01T07:32:57;2.83;;;1.97;;
32639;SDS011;19049;52.524;11.468;2023-03-01T07:35:24;3.47;;;1.93;;
32639;SDS011;19049;52.524;11.468;2023-03-01T07:37:51;2.97;;;2.07;;
32639;SDS011;19049;52.524;11.468;2023-03-01T07:40:17;3.60;;;2.20;;
32639;SDS011;19049;52.524;11.468;2023-03-01T07:42:43;2.40;;;1.97;;
32639;SDS011;19049;52.524;11.468;2023-03-01T07:45:09;2.17;;;1.93;;
32639;SDS011;19049;52.524;11.468;2023-03-01T07:47:36;2.57;;;1.90;;
32639;SDS011;19049;52.524;11.468;2023-03-01T07:50:02;2.60;;;1.80;;
32639;SDS011;19049;52.524;11.468;2023-03-01T07:52:28;2.60;;;2.10;;
32639;SDS011;19049;52.524;11.468;2023-03-01T07:54:55;3.50;;;2.40;;
32639;SDS011;19049;52.524;11.468;2023-03-01T07:57:22;3.03;;;2.20;;
32639;SDS011;19049;52.524;11.468;2023-03-01T07:59:48;2.97;;;2.10;;
32639;SDS011;19049;52.524;11.468;2023-03-01T08:02:14;2.83;;;2.27;;
32639;SDS011;19049;52.524;11.468;2023-03-01T08:04:40;3.40;;;2.53;;
32639;SDS011;19049;52.524;11.468;2023-03-01T08:07:06;3.20;;;2.60;;
32639;SDS011;19049;52.524;11.468;2023-03-01T08:09:34;4.77;;;3.00;;
32639;SDS011;19049;52.524;11.468;2023-03-01T08:12:01;4.20;;;2.90;;
32639;SDS011;19049;52.524;11.468;2023-03-01T08:14:27;3.97;;;2.90;;
32639;SDS011;19049;52.524;11.468;2023-03-01T08:16:53;4.87;;;3.10;;
32639;SDS011;19049;52.524;11.468;2023-03-01T08:19:20;3.57;;;2.93;;
32639;SDS011;19049;52.524;11.468;2023-03-01T08:21:46;4.10;;;2.60;;
32639;SDS011;19049;52.524;11.468;2023-03-01T08:24:12;2.90;;;2.53;;
32639;SDS011;19049;52.524;11.468;2023-03-01T08:26:37;2.77;;;2.30;;
32639;SDS011;19049;52.524;11.468;2023-03-01T08:29:05;3.53;;;2.53;;
32639;SDS011;19049;52.524;11.468;2023-03-01T08:31:36;4.20;;;2.67;;
32639;SDS011;19049;52.524;11.468;2023-03-01T08:34:10;2.73;;;2.33;;
32639;SDS011;19049;52.524;11.468;2023-03-01T08:36:39;3.83;;;2.90;;
32639;SDS011;19049;52.524;11.468;2023-03-01T08:39:09;3.30;;;2.67;;
32639;SDS011;19049;52.524;11.468;2023-03-01T08:41:40;2.90;;;2.17;;
32639;SDS011;19049;52.524;11.468;2023-03-01T08:44:07;4.10;;;2.57;;
32639;SDS011;19049;52.524;11.468;2023-03-01T08:46:43;4.43;;;2.90;;
32639;SDS011;19049;52.524;11.468;2023-03-01T08:49:13;3.43;;;2.60;;
32639;SDS011;19049;52.524;11.468;2023-03-01T08:51:40;3.10;;;2.70;;
32639;SDS011;19049;52.524;11.468;2023-03-01T08:54:15;3.33;;;2.50;;
32639;SDS011;19049;52.524;11.468;2023-03-01T08:56:44;3.37;;;2.47;;
32639;SDS011;19049;52.524;11.468;2023-03-01T08:59:19;3.23;;;2.47;;
32639;SDS011;19049;52.524;11.468;2023-03-01T09:01:47;2.80;;;2.47;;
32639;SDS011;19049;52.524;11.468;2023-03-01T09:04:14;3.93;;;2.50;;
32639;SDS011;19049;52.524;11.468;2023-03-01T09:06:47;3.37;;;2.60;;
32639;SDS011;19049;52.524;11.468;2023-03-01T09:09:16;3.00;;;2.60;;
32639;SDS011;19049;52.524;11.468;2023-03-01T09:11:45;3.17;;;2.40;;
32639;SDS011;19049;52.524;11.468;2023-03-01T09:14:12;4.57;;;2.90;;
32639;SDS011;19049;52.524;11.468;2023-03-01T09:16:38;2.77;;;2.30;;
32639;SDS011;19049;52.524;11.468;2023-03-01T09:19:04;3.70;;;2.23;;
32639;SDS011;19049;52.524;11.468;2023-03-01T09:21:31;2.43;;;2.17;;
32639;SDS011;19049;52.524;11.468;2023-03-01T09:23:57;3.37;;;2.27;;
32639;SDS011;19049;52.524;11.468;2023-03-01T09:26:23;3.33;;;2.13;;
32639;SDS011;19049;52.524;11.468;2023-03-01T09:28:50;1.97;;;1.70;;
32639;SDS011;19049;52.524;11.468;2023-03-01T09:31:19;3.33;;;2.07;;
32639;SDS011;19049;52.524;11.468;2023-03-01T09:33:46;2.83;;;2.30;;
32639;SDS011;19049;52.524;11.468;2023-03-01T09:36:16;3.30;;;2.20;;
32639;SDS011;19049;52.524;11.468;2023-03-01T09:38:45;2.60;;;2.10;;
32639;SDS011;19049;52.524;11.468;2023-03-01T09:46:44;3.83;;;2.07;;
32639;SDS011;19049;52.524;11.468;2023-03-01T09:49:14;3.20;;;2.33;;
32639;SDS011;19049;52.524;11.468;2023-03-01T09:51:43;2.43;;;1.97;;
32639;SDS011;19049;52.524;11.468;2023-03-01T09:54:33;3.60;;;1.87;;
32639;SDS011;19049;52.524;11.468;2023-03-01T09:57:06;3.23;;;1.77;;
32639;SDS011;19049;52.524;11.468;2023-03-01T10:00:16;1.97;;;1.67;;
32639;SDS011;19049;52.524;11.468;2023-03-01T10:06:08;1.93;;;1.53;;
32639;SDS011;19049;52.524;11.468;2023-03-01T10:08:43;3.00;;;2.13;;
32639;SDS011;19049;52.524;11.468;2023-03-01T10:14:03;3.43;;;2.00;;
32639;SDS011;19049;52.524;11.468;2023-03-01T10:16:55;3.60;;;2.47;;
32639;SDS011;19049;52.524;11.468;2023-03-01T10:19:37;3.67;;;2.20;;
32639;SDS011;19049;52.524;11.468;2023-03-01T10:22:18;3.00;;;2.10;;
32639;SDS011;19049;52.524;11.468;2023-03-01T10:24:48;3.07;;;2.23;;
32639;SDS011;19049;52.524;11.468;2023-03-01T10:27:21;2.73;;;2.33;;
32639;SDS011;19049;52.524;11.468;2023-03-01T10:30:01;3.80;;;2.33;;
32639;SDS011;19049;52.524;11.468;2023-03-01T10:32:31;2.97;;;2.30;;
32639;SDS011;19049;52.524;11.468;2023-03-01T10:34:57;3.90;;;2.40;;
32639;SDS011;19049;52.524;11.468;2023-03-01T10:37:23;2.70;;;2.20;;
32639;SDS011;19049;52.524;11.468;2023-03-01T10:42:25;4.47;;;3.30;;
32639;SDS011;19049;52.524;11.468;2023-03-01T10:44:53;3.10;;;2.40;;
32639;SDS011;19049;52.524;11.468;2023-03-01T10:47:26;2.73;;;2.23;;
32639;SDS011;19049;52.524;11.468;2023-03-01T10:49:57;4.13;;;2.97;;
32639;SDS011;19049;52.524;11.468;2023-03-01T10:52:26;2.70;;;2.17;;
32639;SDS011;19049;52.524;11.468;2023-03-01T10:54:58;4.03;;;2.30;;
32639;SDS011;19049;52.524;11.468;2023-03-01T10:57:52;2.77;;;2.17;;
32639;SDS011;19049;52.524;11.468;2023-03-01T11:00:33;2.87;;;2.23;;
32639;SDS011;19049;52.524;11.468;2023-03-01T11:05:34;3.27;;;2.20;;
32639;SDS011;19049;52.524;11.468;2023-03-01T11:08:01;3.60;;;2.33;;
32639;SDS011;19049;52.524;11.468;2023-03-01T11:10:29;2.53;;;1.83;;
32639;SDS011;19049;52.524;11.468;2023-03-01T11:13:07;2.90;;;1.90;;
32639;SDS011;19049;52.524;11.468;2023-03-01T11:15:40;3.37;;;2.00;;
32639;SDS011;19049;52.524;11.468;2023-03-01T11:18:17;2.93;;;2.10;;
32639;SDS011;19049;52.524;11.468;2023-03-01T11:20:46;2.30;;;2.10;;
32639;SDS011;19049;52.524;11.468;2023-03-01T11:23:12;2.10;;;1.83;;
32639;SDS011;19049;52.524;11.468;2023-03-01T11:25:42;3.67;;;1.70;;
32639;SDS011;19049;52.524;11.468;2023-03-01T11:28:12;2.67;;;1.80;;
32639;SDS011;19049;52.524;11.468;2023-03-01T11:33:19;3.23;;;2.23;;
32639;SDS011;19049;52.524;11.468;2023-03-01T11:36:01;2.77;;;1.90;;
32639;SDS011;19049;52.524;11.468;2023-03-01T11:38:47;3.10;;;2.00;;
32639;SDS011;19049;52.524;11.468;2023-03-01T12:10:18;3.33;;;1.80;;
32639;SDS011;19049;52.524;11.468;2023-03-01T12:24:14;2.80;;;1.73;;
32639;SDS011;19049;52.524;11.468;2023-03-01T12:26:58;4.03;;;2.27;;
32639;SDS011;19049;52.524;11.468;2023-03-01T12:29:51;4.97;;;2.50;;
32639;SDS011;19049;52.524;11.468;2023-03-01T12:32:25;3.63;;;2.13;;
32639;SDS011;19049;52.524;11.468;2023-03-01T12:35:18;3.83;;;2.20;;
32639;SDS011;19049;52.524;11.468;2023-03-01T12:38:12;3.57;;;2.07;;
32639;SDS011;19049;52.524;11.468;2023-03-01T12:43:32;3.03;;;1.97;;
32639;SDS011;19049;52.524;11.468;2023-03-01T12:51:35;3.67;;;2.43;;
32639;SDS011;19049;52.524;11.468;2023-03-01T12:54:16;3.13;;;2.30;;
32639;SDS011;19049;52.524;11.468;2023-03-01T12:56:51;4.17;;;2.30;;
32639;SDS011;19049;52.524;11.468;2023-03-01T12:59:21;3.20;;;1.97;;
32639;SDS011;19049;52.524;11.468;2023-03-01T13:02:37;4.27;;;2.27;;
32639;SDS011;19049;52.524;11.468;2023-03-01T13:04:47;2.73;;;2.13;;
32639;SDS011;19049;52.524;11.468;2023-03-01T13:07:57;3.33;;;2.20;;
32639;SDS011;19049;52.524;11.468;2023-03-01T13:10:34;3.47;;;2.10;;
32639;SDS011;19049;52.524;11.468;2023-03-01T13:15:39;2.20;;;1.53;;
32639;SDS011;19049;52.524;11.468;2023-03-01T13:33:47;1.60;;;1.50;;
32639;SDS011;19049;52.524;11.468;2023-03-01T13:44:26;3.17;;;1.70;;
32639;SDS011;19049;52.524;11.468;2023-03-01T13:49:42;2.60;;;1.60;;
32639;SDS011;19049;52.524;11.468;2023-03-01T13:52:35;1.90;;;1.43;;
32639;SDS011;19049;52.524;11.468;2023-03-01T13:55:14;2.50;;;1.70;;
32639;SDS011;19049;52.524;11.468;2023-03-01T13:58:00;2.40;;;1.93;;
32639;SDS011;19049;52.524;11.468;2023-03-01T14:00:31;3.50;;;3.13;;
32639;SDS011;19049;52.524;11.468;2023-03-01T14:05:26;2.03;;;1.80;;
32639;SDS011;19049;52.524;11.468;2023-03-01T14:07:51;2.30;;;1.90;;
32639;SDS011;19049;52.524;11.468;2023-03-01T14:10:17;1.63;;;1.53;;
32639;SDS011;19049;52.524;11.468;2023-03-01T14:15:39;2.17;;;1.43;;
32639;SDS011;19049;52.524;11.468;2023-03-01T14:20:54;2.47;;;2.13;;
32639;SDS011;19049;52.524;11.468;2023-03-01T14:23:20;4.17;;;3.00;;
32639;SDS011;19049;52.524;11.468;2023-03-01T14:25:51;2.73;;;2.00;;
32639;SDS011;19049;52.524;11.468;2023-03-01T14:30:49;3.10;;;1.80;;
32639;SDS011;19049;52.524;11.468;2023-03-01T14:36:07;2.63;;;1.53;;
32639;SDS011;19049;52.524;11.468;2023-03-01T14:41:25;3.07;;;1.30;;
32639;SDS011;19049;52.524;11.468;2023-03-01T14:44:03;2.87;;;1.80;;
32639;SDS011;19049;52.524;11.468;2023-03-01T14:49:05;1.87;;;1.50;;
32639;SDS011;19049;52.524;11.468;2023-03-01T14:51:36;2.67;;;1.80;;
32639;SDS011;19049;52.524;11.468;2023-03-01T14:54:05;4.03;;;1.97;;
32639;SDS011;19049;52.524;11.468;2023-03-01T14:56:45;3.33;;;1.93;;
32639;SDS011;19049;52.524;11.468;2023-03-01T14:59:12;2.40;;;1.90;;
32639;SDS011;19049;52.524;11.468;2023-03-01T15:01:38;2.70;;;2.10;;
32639;SDS011;19049;52.524;11.468;2023-03-01T15:04:06;2.67;;;2.10;;
32639;SDS011;19049;52.524;11.468;2023-03-01T15:06:35;2.20;;;1.60;;
32639;SDS011;19049;52.524;11.468;2023-03-01T15:09:02;2.97;;;1.87;;
32639;SDS011;19049;52.524;11.468;2023-03-01T15:11:29;2.70;;;2.13;;
32639;SDS011;19049;52.524;11.468;2023-03-01T15:13:56;2.20;;;1.70;;
32639;SDS011;19049;52.524;11.468;2023-03-01T15:16:24;2.63;;;1.77;;
32639;SDS011;19049;52.524;11.468;2023-03-01T15:19:02;2.93;;;1.80;;
32639;SDS011;19049;52.524;11.468;2023-03-01T15:21:31;3.17;;;2.17;;
32639;SDS011;19049;52.524;11.468;2023-03-01T15:24:20;2.33;;;1.67;;
32639;SDS011;19049;52.524;11.468;2023-03-01T15:26:52;3.50;;;1.83;;
32639;SDS011;19049;52.524;11.468;2023-03-01T15:29:23;3.27;;;2.43;;
32639;SDS011;19049;52.524;11.468;2023-03-01T15:31:58;3.23;;;2.37;;
32639;SDS011;19049;52.524;11.468;2023-03-01T15:34:28;4.40;;;2.10;;
32639;SDS011;19049;52.524;11.468;2023-03-01T15:36:56;3.30;;;2.20;;
32639;SDS011;19049;52.524;11.468;2023-03-01T15:39:35;2.97;;;1.90;;
32639;SDS011;19049;52.524;11.468;2023-03-01T15:42:36;2.73;;;1.93;;
32639;SDS011;19049;52.524;11.468;2023-03-01T15:45:10;3.33;;;2.50;;
32639;SDS011;19049;52.524;11.468;2023-03-01T15:47:57;3.50;;;2.33;;
32639;SDS011;19049;52.524;11.468;2023-03-01T15:52:58;3.10;;;1.90;;
32639;SDS011;19049;52.524;11.468;2023-03-01T15:55:26;3.00;;;2.33;;
32639;SDS011;19049;52.524;11.468;2023-03-01T15:58:02;2.60;;;1.80;;
32639;SDS011;19049;52.524;11.468;2023-03-01T16:00:31;3.90;;;2.17;;
32639;SDS011;19049;52.524;11.468;2023-03-01T16:02:57;3.67;;;2.10;;
32639;SDS011;19049;52.524;11.468;2023-03-01T16:05:27;4.00;;;2.00;;
32639;SDS011;19049;52.524;11.468;2023-03-01T16:07:55;2.83;;;1.90;;
32639;SDS011;19049;52.524;11.468;2023-03-01T16:10:21;2.43;;;1.80;;
32639;SDS011;19049;52.524;11.468;2023-03-01T16:12:48;3.03;;;2.07;;
32639;SDS011;19049;52.524;11.468;2023-03-01T16:17:54;2.73;;;1.73;;
32639;SDS011;19049;52.524;11.468;2023-03-01T16:20:19;2.27;;;1.73;;
32639;SDS011;19049;52.524;11.468;2023-03-01T16:22:45;2.77;;;1.87;;
32639;SDS011;19049;52.524;11.468;2023-03-01T16:25:12;1.97;;;1.70;;
32639;SDS011;19049;52.524;11.468;2023-03-01T16:27:41;2.67;;;1.50;;
32639;SDS011;19049;52.524;11.468;2023-03-01T16:30:07;3.10;;;1.50;;
32639;SDS011;19049;52.524;11.468;2023-03-01T16:32:37;2.07;;;1.30;;
32639;SDS011;19049;52.524;11.468;2023-03-01T16:35:07;1.47;;;1.07;;
32639;SDS011;19049;52.524;11.468;2023-03-01T16:37:34;1.70;;;1.20;;
32639;SDS011;19049;52.524;11.468;2023-03-01T16:40:01;1.70;;;1.27;;
32639;SDS011;19049;52.524;11.468;2023-03-01T16:42:32;2.77;;;1.43;;
32639;SDS011;19049;52.524;11.468;2023-03-01T16:44:59;2.23;;;0.93;;
32639;SDS011;19049;52.524;11.468;2023-03-01T16:47:25;2.40;;;1.30;;
32639;SDS011;19049;52.524;11.468;2023-03-01T16:49:52;2.17;;;1.40;;
32639;SDS011;19049;52.524;11.468;2023-03-01T16:52:18;1.80;;;1.30;;
32639;SDS011;19049;52.524;11.468;2023-03-01T16:54:44;1.77;;;1.00;;
32639;SDS011;19049;52.524;11.468;2023-03-01T16:57:10;1.97;;;1.30;;